createdAt,value
2016-05-01T00:00:12.603Z,8.66
2016-05-01T00:01:12.450Z,8.61
2016-05-01T00:02:12.593Z,8.58
2016-05-01T00:03:12.595Z,8.59
2016-05-01T00:04:12.427Z,8.58
2016-05-01T00:05:12.647Z,8.5
2016-05-01T00:06:14.714Z,8.59
2016-05-01T00:07:12.811Z,8.62
2016-05-01T00:08:12.952Z,8.58
2016-05-01T00:09:12.394Z,8.55
2016-05-01T00:10:12.396Z,8.56
2016-05-01T00:12:12.699Z,8.53
2016-05-01T00:13:12.591Z,8.48
2016-05-01T00:14:12.625Z,8.47
2016-05-01T00:15:12.363Z,8.52
2016-05-01T00:16:12.709Z,8.48
2016-05-01T00:17:12.508Z,8.45
2016-05-01T00:18:12.511Z,8.47
2016-05-01T00:19:13.092Z,8.47
2016-05-01T00:20:13.595Z,8.4
2016-05-01T00:21:12.488Z,8.44
2016-05-01T00:22:12.506Z,8.41
2016-05-01T00:23:12.478Z,8.44
2016-05-01T00:24:12.480Z,8.47
2016-05-01T00:25:12.326Z,8.37
2016-05-01T00:26:12.454Z,8.41
2016-05-01T00:27:12.457Z,8.47
2016-05-01T00:28:12.444Z,8.44
2016-05-01T00:29:12.447Z,8.45
2016-05-01T00:30:12.293Z,8.43
2016-05-01T00:31:12.421Z,8.47
2016-05-01T00:32:12.424Z,8.48
2016-05-01T00:33:12.411Z,8.37
2016-05-01T00:34:12.414Z,8.4
2016-05-01T00:35:12.417Z,8.33
2016-05-01T00:36:12.278Z,8.22
2016-05-01T00:37:12.391Z,8.26
2016-05-01T00:38:12.393Z,8.22
2016-05-01T00:40:13.164Z,8.12
2016-05-01T00:41:13.683Z,8.16
2016-05-01T00:42:12.341Z,8.15
2016-05-01T00:43:12.750Z,8.15
2016-05-01T00:44:12.722Z,8.15
2016-05-01T00:45:12.365Z,8.01
2016-05-01T00:46:12.336Z,8.01
2016-05-01T00:47:12.354Z,8.07
2016-05-01T00:48:12.030Z,7.98
2016-05-01T00:49:13.673Z,7.98
2016-05-01T00:50:12.331Z,7.97
2016-05-01T00:51:12.318Z,7.79
2016-05-01T00:52:13.462Z,7.92
2016-05-01T00:53:12.418Z,7.75
2016-05-01T00:54:12.437Z,7.9
2016-05-01T00:55:12.282Z,7.89
2016-05-01T00:56:11.973Z,7.92
2016-05-01T00:57:12.273Z,7.97
2016-05-01T00:58:12.119Z,7.89
2016-05-01T00:59:12.106Z,7.89
2016-05-01T01:00:12.249Z,7.95
2016-05-01T01:01:12.251Z,7.85
2016-05-01T01:02:12.239Z,7.9
2016-05-01T01:03:12.242Z,7.9
2016-05-01T01:04:12.228Z,8
2016-05-01T01:05:12.637Z,7.85
2016-05-01T01:06:12.218Z,7.92
2016-05-01T01:07:12.221Z,7.89
2016-05-01T01:08:12.052Z,7.95
2016-05-01T01:09:12.211Z,7.92
2016-05-01T01:10:12.197Z,7.85
2016-05-01T01:11:12.185Z,7.87
2016-05-01T01:12:12.188Z,7.82
2016-05-01T01:13:12.174Z,7.79
2016-05-01T01:14:12.174Z,7.71
2016-05-01T01:15:12.176Z,7.67
2016-05-01T01:16:12.164Z,7.64
2016-05-01T01:17:12.150Z,7.67
2016-05-01T01:18:12.153Z,7.6
2016-05-01T01:19:12.140Z,7.57
2016-05-01T01:20:12.143Z,7.63
2016-05-01T01:21:12.130Z,7.55
2016-05-01T01:22:12.133Z,7.6
2016-05-01T01:23:12.120Z,7.58
2016-05-01T01:24:11.950Z,7.61
2016-05-01T01:25:26.580Z,7.55
2016-05-01T01:26:12.158Z,7.58
2016-05-01T01:28:11.930Z,7.69
2016-05-01T01:29:12.073Z,7.67
2016-05-01T01:30:12.327Z,7.68
2016-05-01T01:31:12.063Z,7.63
2016-05-01T01:32:12.252Z,7.6
2016-05-01T01:33:12.068Z,7.6
2016-05-01T01:34:12.055Z,7.61
2016-05-01T01:35:12.918Z,7.6
2016-05-01T01:36:12.686Z,7.57
2016-05-01T01:37:12.033Z,7.55
2016-05-01T01:38:12.565Z,7.61
2016-05-01T01:39:26.196Z,7.55
2016-05-01T01:40:12.009Z,7.61
2016-05-01T01:41:11.996Z,7.48
2016-05-01T01:42:12.015Z,7.53
2016-05-01T01:43:11.986Z,7.57
2016-05-01T01:44:11.989Z,7.48
2016-05-01T01:45:11.975Z,7.57
2016-05-01T01:46:11.962Z,7.5
2016-05-01T01:47:11.965Z,7.52
2016-05-01T01:48:11.796Z,7.4
2016-05-01T01:49:11.955Z,7.49
2016-05-01T01:50:12.114Z,7.5
2016-05-01T01:51:11.945Z,7.48
2016-05-01T01:52:11.931Z,7.45
2016-05-01T01:53:11.778Z,7.58
2016-05-01T01:54:11.765Z,7.42
2016-05-01T01:55:11.909Z,7.4
2016-05-01T01:56:11.912Z,7.43
2016-05-01T01:57:11.899Z,7.42
2016-05-01T01:58:12.682Z,7.49
2016-05-01T01:59:13.763Z,7.4
2016-05-01T02:00:12.203Z,7.45
2016-05-01T02:01:13.066Z,7.39
2016-05-01T02:02:11.708Z,7.4
2016-05-01T02:03:12.258Z,7.25
2016-05-01T02:04:11.855Z,7.31
2016-05-01T02:05:11.857Z,7.24
2016-05-01T02:06:11.844Z,7.24
2016-05-01T02:07:11.831Z,7.31
2016-05-01T02:08:12.756Z,7.34
2016-05-01T02:09:12.852Z,7.23
2016-05-01T02:10:12.309Z,7.27
2016-05-01T02:11:11.811Z,7.2
2016-05-01T02:12:11.799Z,7.23
2016-05-01T02:13:11.972Z,7.21
2016-05-01T02:14:11.631Z,7.17
2016-05-01T02:15:11.791Z,7.21
2016-05-01T02:16:11.481Z,7.17
2016-05-01T02:17:11.765Z,7.15
2016-05-01T02:18:11.768Z,7.12
2016-05-01T02:19:11.614Z,7.13
2016-05-01T02:20:11.461Z,7.13
2016-05-01T02:21:11.745Z,7.12
2016-05-01T02:22:11.731Z,7.09
2016-05-01T02:23:11.750Z,7.15
2016-05-01T02:24:11.722Z,7.09
2016-05-01T02:25:11.724Z,7.17
2016-05-01T02:26:11.711Z,7.09
2016-05-01T02:27:11.697Z,7.2
2016-05-01T02:28:11.700Z,7.1
2016-05-01T02:29:11.688Z,7.12
2016-05-01T02:30:11.674Z,7.09
2016-05-01T02:31:11.677Z,7.15
2016-05-01T02:32:11.696Z,6.97
2016-05-01T02:33:11.683Z,6.97
2016-05-01T02:34:11.654Z,7.02
2016-05-01T02:35:11.657Z,6.98
2016-05-01T02:36:11.644Z,6.98
2016-05-01T02:37:11.631Z,7.05
2016-05-01T02:38:11.634Z,6.95
2016-05-01T02:39:11.621Z,6.95
2016-05-01T02:40:11.624Z,6.98
2016-05-01T02:41:11.610Z,7.02
2016-05-01T02:42:11.441Z,7.02
2016-05-01T02:43:11.601Z,6.95
2016-05-01T02:44:12.790Z,6.97
2016-05-01T02:45:11.590Z,7.05
2016-05-01T02:46:11.420Z,6.92
2016-05-01T02:47:11.408Z,6.99
2016-05-01T02:48:11.707Z,6.94
2016-05-01T02:49:11.397Z,6.98
2016-05-01T02:50:11.556Z,6.92
2016-05-01T02:51:11.544Z,6.94
2016-05-01T02:52:11.578Z,6.92
2016-05-01T02:53:11.565Z,7.05
2016-05-01T02:54:11.520Z,7.12
2016-05-01T02:55:12.367Z,7.1
2016-05-01T02:56:11.494Z,7.07
2016-05-01T02:57:11.498Z,7.09
2016-05-01T02:58:11.500Z,7.1
2016-05-01T02:59:11.331Z,7.07
2016-05-01T03:00:11.489Z,6.98
2016-05-01T03:01:11.461Z,6.95
2016-05-01T03:02:11.464Z,6.95
2016-05-01T03:03:11.451Z,6.98
2016-05-01T03:04:11.454Z,6.95
2016-05-01T03:05:11.440Z,6.95
2016-05-01T03:06:11.427Z,6.98
2016-05-01T03:07:11.274Z,6.95
2016-05-01T03:08:11.260Z,6.98
2016-05-01T03:09:11.420Z,6.99
2016-05-01T03:10:11.251Z,6.95
2016-05-01T03:11:11.394Z,6.97
2016-05-01T03:12:11.382Z,6.98
2016-05-01T03:13:11.400Z,6.94
2016-05-01T03:14:11.386Z,6.84
2016-05-01T03:15:11.218Z,6.87
2016-05-01T03:16:11.220Z,6.85
2016-05-01T03:17:13.660Z,6.85
2016-05-01T03:18:12.038Z,6.84
2016-05-01T03:19:26.965Z,6.81
2016-05-01T03:20:12.887Z,6.85
2016-05-01T03:21:12.375Z,6.89
2016-05-01T03:22:11.314Z,6.87
2016-05-01T03:23:11.676Z,6.89
2016-05-01T03:24:11.320Z,6.85
2016-05-01T03:25:11.306Z,6.8
2016-05-01T03:26:11.153Z,6.84
2016-05-01T03:27:11.312Z,6.8
2016-05-01T03:28:11.284Z,6.84
2016-05-01T03:29:12.552Z,6.79
2016-05-01T03:30:11.117Z,6.87
2016-05-01T03:31:11.261Z,6.77
2016-05-01T03:32:11.092Z,6.84
2016-05-01T03:33:11.500Z,6.85
2016-05-01T03:34:11.238Z,6.81
2016-05-01T03:35:11.350Z,6.8
2016-05-01T03:36:11.071Z,6.84
2016-05-01T03:37:11.074Z,6.88
2016-05-01T03:38:11.217Z,6.88
2016-05-01T03:39:11.048Z,6.88
2016-05-01T03:40:11.207Z,6.88
2016-05-01T03:41:11.194Z,6.85
2016-05-01T03:42:11.181Z,6.88
2016-05-01T03:43:11.184Z,6.89
2016-05-01T03:44:11.171Z,6.97
2016-05-01T03:45:11.157Z,6.97
2016-05-01T03:46:11.004Z,6.88
2016-05-01T03:47:11.148Z,6.87
2016-05-01T03:48:11.150Z,6.94
2016-05-01T03:49:11.153Z,6.91
2016-05-01T03:50:10.983Z,6.94
2016-05-01T03:51:11.142Z,6.95
2016-05-01T03:52:11.114Z,7.03
2016-05-01T03:53:11.117Z,6.98
2016-05-01T03:54:11.104Z,6.94
2016-05-01T03:55:11.092Z,6.95
2016-05-01T03:56:11.094Z,6.98
2016-05-01T03:57:11.081Z,6.95
2016-05-01T03:58:11.068Z,6.97
2016-05-01T03:59:11.070Z,6.98
2016-05-01T04:00:10.917Z,6.98
2016-05-01T04:01:11.044Z,7.07
2016-05-01T04:02:11.047Z,7.05
2016-05-01T04:03:12.097Z,7.1
2016-05-01T04:04:25.208Z,7.07
2016-05-01T04:05:11.930Z,7.15
2016-05-01T04:06:11.213Z,7.12
2016-05-01T04:07:11.357Z,7.23
2016-05-01T04:08:11.001Z,7.28
2016-05-01T04:09:10.847Z,7.23
2016-05-01T04:10:11.146Z,7.35
2016-05-01T04:11:11.040Z,7.39
2016-05-01T04:12:10.980Z,7.46
2016-05-01T04:13:10.983Z,7.42
2016-05-01T04:14:11.361Z,7.49
2016-05-01T04:15:11.301Z,7.5
2016-05-01T04:16:25.632Z,7.58
2016-05-01T04:17:10.946Z,7.63
2016-05-01T04:18:10.793Z,7.69
2016-05-01T04:19:11.124Z,7.8
2016-05-01T04:20:10.923Z,7.77
2016-05-01T04:21:10.926Z,7.89
2016-05-01T04:22:10.789Z,7.87
2016-05-01T04:23:10.900Z,8
2016-05-01T04:24:10.919Z,7.97
2016-05-01T04:25:10.905Z,8.01
2016-05-01T04:26:10.736Z,8.08
2016-05-01T04:27:10.739Z,8.01
2016-05-01T04:28:10.867Z,8.16
2016-05-01T04:29:10.714Z,8.29
2016-05-01T04:30:10.873Z,8.5
2016-05-01T04:31:10.859Z,8.37
2016-05-01T04:32:10.862Z,8.5
2016-05-01T04:33:10.850Z,8.59
2016-05-01T04:34:10.852Z,8.61
2016-05-01T04:35:10.855Z,8.68
2016-05-01T04:36:12.186Z,8.66
2016-05-01T04:37:10.829Z,8.71
2016-05-01T04:38:10.832Z,8.7
2016-05-01T04:39:10.818Z,8.74
2016-05-01T04:40:10.665Z,8.74
2016-05-01T04:41:10.668Z,8.94
2016-05-01T04:42:10.810Z,8.86
2016-05-01T04:43:10.813Z,8.98
2016-05-01T04:44:10.801Z,9.01
2016-05-01T04:46:10.790Z,9.11
2016-05-01T04:47:12.215Z,9.15
2016-05-01T04:48:10.780Z,9.13
2016-05-01T04:49:10.799Z,9.2
2016-05-01T04:50:10.615Z,9.4
2016-05-01T04:51:10.772Z,9.43
2016-05-01T04:52:10.760Z,9.46
2016-05-01T04:53:10.762Z,9.64
2016-05-01T04:54:10.765Z,9.61
2016-05-01T04:55:10.596Z,9.66
2016-05-01T04:56:10.770Z,9.75
2016-05-01T04:57:10.601Z,9.78
2016-05-01T04:58:10.588Z,9.79
2016-05-01T04:59:10.434Z,9.9
2016-05-01T05:00:10.734Z,10.04
2016-05-01T05:01:10.580Z,9.96
2016-05-01T05:02:10.583Z,10.01
2016-05-01T05:03:10.727Z,9.97
2016-05-01T05:04:10.573Z,10.01
2016-05-01T05:05:10.608Z,10.07
2016-05-01T05:06:10.719Z,10.18
2016-05-01T05:07:10.722Z,10.36
2016-05-01T05:08:10.725Z,10.45
2016-05-01T05:09:10.712Z,10.48
2016-05-01T05:10:10.714Z,10.53
2016-05-01T05:11:10.717Z,10.64
2016-05-01T05:12:10.704Z,10.64
2016-05-01T05:13:10.707Z,10.67
2016-05-01T05:14:10.710Z,10.74
2016-05-01T05:15:10.696Z,10.92
2016-05-01T05:16:10.684Z,10.91
2016-05-01T05:17:10.687Z,10.78
2016-05-01T05:18:10.689Z,10.84
2016-05-01T05:19:10.692Z,10.91
2016-05-01T05:20:10.725Z,10.96
2016-05-01T05:21:10.384Z,10.92
2016-05-01T05:22:10.684Z,10.99
2016-05-01T05:23:10.687Z,10.88
2016-05-01T05:24:25.268Z,10.89
2016-05-01T05:25:10.693Z,10.88
2016-05-01T05:26:10.522Z,11.07
2016-05-01T05:27:10.682Z,11.19
2016-05-01T05:28:10.685Z,11.47
2016-05-01T05:29:10.515Z,11.82
2016-05-01T05:30:10.675Z,11.95
2016-05-01T05:31:10.724Z,12.14
2016-05-01T05:32:11.273Z,12.29
2016-05-01T05:33:11.589Z,12.52
2016-05-01T05:34:11.169Z,12.65
2016-05-01T05:35:10.531Z,12.75
2016-05-01T05:36:10.519Z,12.93
2016-05-01T05:37:10.677Z,13
2016-05-01T05:38:10.681Z,13.14
2016-05-01T05:39:10.511Z,13.14
2016-05-01T05:40:10.685Z,13.25
2016-05-01T05:41:10.672Z,13.39
2016-05-01T05:42:10.675Z,13.55
2016-05-01T05:43:10.677Z,13.75
2016-05-01T05:44:10.681Z,14.1
2016-05-01T05:45:10.668Z,14.32
2016-05-01T05:46:10.530Z,14.4
2016-05-01T05:47:10.689Z,14.52
2016-05-01T05:48:10.379Z,14.75
2016-05-01T05:49:10.523Z,14.84
2016-05-01T05:50:10.697Z,14.84
2016-05-01T05:51:10.544Z,15.16
2016-05-01T05:52:10.687Z,15.47
2016-05-01T05:53:10.534Z,15.72
2016-05-01T05:54:10.707Z,15.94
2016-05-01T05:55:11.757Z,16.05
2016-05-01T05:56:12.307Z,16.15
2016-05-01T05:57:11.981Z,16.07
2016-05-01T05:58:10.937Z,15.93
2016-05-01T05:59:10.720Z,16.04
2016-05-01T06:00:10.723Z,16.12
2016-05-01T06:01:10.992Z,16.21
2016-05-01T06:02:10.728Z,16.27
2016-05-01T06:03:10.731Z,16.49
2016-05-01T06:04:10.734Z,16.75
2016-05-01T06:05:13.066Z,17.18
2016-05-01T06:06:10.740Z,17.34
2016-05-01T06:07:11.336Z,17.36
2016-05-01T06:08:10.885Z,17.37
2016-05-01T06:09:10.608Z,17.3
2016-05-01T06:10:10.774Z,17.56
2016-05-01T06:11:10.893Z,17.49
2016-05-01T06:12:10.791Z,17.63
2016-05-01T06:13:10.795Z,17.9
2016-05-01T06:14:10.637Z,18.07
2016-05-01T06:15:10.797Z,18.32
2016-05-01T06:16:10.799Z,18.48
2016-05-01T06:17:10.833Z,18.66
2016-05-01T06:18:10.835Z,18.98
2016-05-01T06:19:10.666Z,18.92
2016-05-01T06:20:12.388Z,18.94
2016-05-01T06:21:10.844Z,18.76
2016-05-01T06:22:10.846Z,18.7
2016-05-01T06:23:10.849Z,18.51
2016-05-01T06:24:10.696Z,18.39
2016-05-01T06:25:10.871Z,18.11
2016-05-01T06:26:10.873Z,17.86
2016-05-01T06:27:10.876Z,17.66
2016-05-01T06:28:10.737Z,17.41
2016-05-01T06:29:10.740Z,17.19
2016-05-01T06:30:10.899Z,17.03
2016-05-01T06:31:10.901Z,16.91
2016-05-01T06:32:10.921Z,16.79
2016-05-01T06:33:10.767Z,16.91
2016-05-01T06:34:10.769Z,16.98
2016-05-01T06:35:10.944Z,17.25
2016-05-01T06:36:10.931Z,17.38
2016-05-01T06:37:10.949Z,17.68
2016-05-01T06:38:10.952Z,17.72
2016-05-01T06:39:10.970Z,17.87
2016-05-01T06:40:11.317Z,18.08
2016-05-01T06:41:12.429Z,18.21
2016-05-01T06:42:10.963Z,18.18
2016-05-01T06:43:11.684Z,18.26
2016-05-01T06:44:11.687Z,18.42
2016-05-01T06:45:11.299Z,18.37
2016-05-01T06:46:11.005Z,18.57
2016-05-01T06:47:11.008Z,18.52
2016-05-01T06:48:11.010Z,18.75
2016-05-01T06:49:11.013Z,18.63
2016-05-01T06:50:12.547Z,18.67
2016-05-01T06:51:12.469Z,18.63
2016-05-01T06:52:11.763Z,18.69
2016-05-01T06:53:11.012Z,18.7
2016-05-01T06:54:11.416Z,18.69
2016-05-01T06:55:11.274Z,18.78
2016-05-01T06:56:11.661Z,18.84
2016-05-01T06:57:11.320Z,18.67
2016-05-01T06:58:11.353Z,18.76
2016-05-01T06:59:11.371Z,18.7
2016-05-01T07:00:11.406Z,18.66
2016-05-01T07:01:11.260Z,18.81
2016-05-01T07:02:11.440Z,19.16
2016-05-01T07:03:11.447Z,19.4
2016-05-01T07:04:11.316Z,19.8
2016-05-01T07:05:11.339Z,20.11
2016-05-01T07:06:11.330Z,20.28
2016-05-01T07:07:11.349Z,20.62
2016-05-01T07:08:11.526Z,20.87
2016-05-01T07:09:11.531Z,21.16
2016-05-01T07:10:11.551Z,21.38
2016-05-01T07:11:11.759Z,21.53
2016-05-01T07:12:11.417Z,21.62
2016-05-01T07:13:11.579Z,21.44
2016-05-01T07:14:12.143Z,21.34
2016-05-01T07:15:12.194Z,21.19
2016-05-01T07:16:11.619Z,21.38
2016-05-01T07:17:12.607Z,21.67
2016-05-01T07:18:11.500Z,21.88
2016-05-01T07:19:12.223Z,22.1
2016-05-01T07:20:12.068Z,22.25
2016-05-01T07:21:11.916Z,22.61
2016-05-01T07:22:11.543Z,22.75
2016-05-01T07:23:14.327Z,22.85
2016-05-01T07:24:12.612Z,23.13
2016-05-01T07:25:13.332Z,23.42
2016-05-01T07:26:12.882Z,23.8
2016-05-01T07:27:12.384Z,24.03
2016-05-01T07:28:11.778Z,24.15
2016-05-01T07:29:11.656Z,23.8
2016-05-01T07:30:11.893Z,23.85
2016-05-01T07:31:11.661Z,23.84
2016-05-01T07:32:11.851Z,23.95
2016-05-01T07:33:11.854Z,23.94
2016-05-01T07:34:11.857Z,23.78
2016-05-01T07:35:12.125Z,23.47
2016-05-01T07:36:11.894Z,23.33
2016-05-01T07:37:11.896Z,23.23
2016-05-01T07:38:11.759Z,23.04
2016-05-01T07:39:11.933Z,23.13
2016-05-01T07:40:11.950Z,22.98
2016-05-01T07:41:11.953Z,22.79
2016-05-01T07:42:11.972Z,22.8
2016-05-01T07:43:11.991Z,22.51
2016-05-01T07:44:11.852Z,22.37
2016-05-01T07:45:12.011Z,21.92
2016-05-01T07:46:11.889Z,21.91
2016-05-01T07:47:12.049Z,22
2016-05-01T07:48:12.066Z,22.02
2016-05-01T07:49:12.085Z,21.99
2016-05-01T07:50:12.009Z,21.68
2016-05-01T07:51:12.105Z,21.58
2016-05-01T07:52:12.124Z,21.69
2016-05-01T07:53:12.126Z,21.92
2016-05-01T07:54:12.145Z,22.07
2016-05-01T07:55:12.163Z,22.37
2016-05-01T07:56:12.166Z,22.06
2016-05-01T07:57:12.184Z,21.82
2016-05-01T07:58:12.046Z,21.8
2016-05-01T07:59:12.221Z,21.83
2016-05-01T08:00:12.537Z,21.69
2016-05-01T08:01:12.242Z,21.61
2016-05-01T08:02:12.260Z,21.58
2016-05-01T08:03:12.262Z,21.62
2016-05-01T08:04:12.328Z,21.71
2016-05-01T08:05:12.752Z,21.74
2016-05-01T08:06:12.318Z,21.83
2016-05-01T08:07:12.320Z,21.92
2016-05-01T08:08:13.135Z,22.1
2016-05-01T08:09:12.748Z,22.24
2016-05-01T08:10:12.376Z,22.49
2016-05-01T08:11:12.425Z,22.68
2016-05-01T08:12:12.897Z,22.67
2016-05-01T08:13:12.805Z,22.64
2016-05-01T08:14:12.527Z,22.8
2016-05-01T08:15:12.435Z,22.67
2016-05-01T08:16:12.438Z,22.75
2016-05-01T08:17:12.300Z,22.8
2016-05-01T08:18:12.475Z,22.62
2016-05-01T08:19:12.337Z,22.2
2016-05-01T08:20:12.387Z,21.99
2016-05-01T08:21:12.515Z,21.94
2016-05-01T08:22:12.377Z,21.9
2016-05-01T08:23:12.536Z,21.72
2016-05-01T08:24:12.554Z,21.25
2016-05-01T08:25:12.556Z,20.92
2016-05-01T08:26:12.574Z,20.58
2016-05-01T08:27:12.593Z,20.24
2016-05-01T08:28:12.595Z,20.08
2016-05-01T08:29:12.458Z,20.11
2016-05-01T08:30:12.633Z,20.03
2016-05-01T08:31:12.635Z,20.02
2016-05-01T08:33:13.438Z,19.69
2016-05-01T08:34:14.112Z,19.56
2016-05-01T08:35:13.193Z,19.56
2016-05-01T08:36:13.415Z,19.69
2016-05-01T08:37:13.448Z,19.39
2016-05-01T08:38:13.201Z,19.11
2016-05-01T08:39:12.720Z,18.66
2016-05-01T08:40:12.722Z,18.42
2016-05-01T08:41:12.583Z,18.25
2016-05-01T08:42:14.322Z,18.32
2016-05-01T08:43:13.902Z,18.25
2016-05-01T08:44:12.763Z,18.32
2016-05-01T08:45:12.782Z,18.35
2016-05-01T08:46:13.269Z,18.29
2016-05-01T08:47:13.241Z,18.3
2016-05-01T08:48:12.931Z,18.35
2016-05-01T08:49:12.683Z,18.47
2016-05-01T08:50:13.311Z,18.44
2016-05-01T08:51:12.813Z,18.45
2016-05-01T08:52:12.676Z,18.45
2016-05-01T08:53:12.835Z,18.35
2016-05-01T08:54:12.837Z,18.18
2016-05-01T08:55:12.841Z,18.03
2016-05-01T08:56:12.843Z,17.86
2016-05-01T08:57:12.845Z,17.71
2016-05-01T08:58:12.693Z,17.66
2016-05-01T08:59:12.867Z,17.54
2016-05-01T09:00:12.870Z,17.51
2016-05-01T09:01:12.716Z,17.49
2016-05-01T09:02:12.718Z,17.34
2016-05-01T09:03:12.720Z,17.21
2016-05-01T09:04:12.881Z,17.19
2016-05-01T09:05:12.883Z,17.21
2016-05-01T09:06:12.886Z,17.36
2016-05-01T09:07:12.889Z,17.36
2016-05-01T09:08:12.891Z,17.43
2016-05-01T09:09:12.753Z,17.37
2016-05-01T09:10:12.896Z,17.55
2016-05-01T09:11:12.742Z,17.58
2016-05-01T09:12:12.902Z,17.63
2016-05-01T09:13:12.905Z,17.64
2016-05-01T09:14:12.907Z,17.78
2016-05-01T09:15:12.910Z,17.66
2016-05-01T09:16:12.913Z,17.63
2016-05-01T09:17:12.916Z,17.62
2016-05-01T09:18:15.027Z,17.66
2016-05-01T09:19:12.764Z,17.68
2016-05-01T09:20:13.111Z,17.75
2016-05-01T09:21:12.927Z,17.78
2016-05-01T09:22:13.272Z,17.75
2016-05-01T09:23:13.342Z,17.79
2016-05-01T09:24:13.392Z,17.79
2016-05-01T09:25:12.941Z,17.93
2016-05-01T09:26:12.787Z,17.89
2016-05-01T09:27:14.854Z,18.03
2016-05-01T09:28:14.043Z,18.05
2016-05-01T09:29:12.796Z,18.03
2016-05-01T09:30:13.205Z,18.11
2016-05-01T09:31:13.614Z,18.11
2016-05-01T09:32:12.850Z,18.08
2016-05-01T09:33:13.167Z,18.25
2016-05-01T09:34:12.809Z,18.25
2016-05-01T09:35:13.047Z,18.27
2016-05-01T09:36:12.971Z,18.27
2016-05-01T09:37:12.818Z,18.35
2016-05-01T09:38:12.992Z,18.27
2016-05-01T09:39:12.979Z,18.17
2016-05-01T09:40:12.981Z,18.18
2016-05-01T09:41:13.000Z,18.02
2016-05-01T09:42:13.002Z,18.12
2016-05-01T09:43:12.990Z,18.17
2016-05-01T09:44:13.009Z,18.21
2016-05-01T09:45:12.995Z,18.35
2016-05-01T09:46:12.686Z,18.41
2016-05-01T09:47:13.000Z,18.48
2016-05-01T09:48:13.003Z,18.51
2016-05-01T09:49:13.006Z,18.45
2016-05-01T09:50:13.212Z,18.5
2016-05-01T09:51:13.793Z,18.54
2016-05-01T09:52:14.874Z,18.62
2016-05-01T09:53:13.564Z,18.73
2016-05-01T09:54:14.238Z,18.85
2016-05-01T09:55:13.021Z,18.91
2016-05-01T09:56:13.869Z,19.02
2016-05-01T09:57:13.293Z,18.95
2016-05-01T09:58:13.217Z,18.9
2016-05-01T09:59:13.112Z,18.91
2016-05-01T10:00:13.052Z,19.04
2016-05-01T10:01:15.038Z,18.94
2016-05-01T10:02:13.041Z,18.91
2016-05-01T10:03:12.903Z,18.87
2016-05-01T10:04:13.531Z,18.84
2016-05-01T10:05:13.065Z,18.82
2016-05-01T10:06:13.630Z,18.84
2016-05-01T10:07:12.915Z,18.9
2016-05-01T10:08:13.073Z,18.9
2016-05-01T10:09:13.075Z,18.95
2016-05-01T10:10:13.094Z,19.13
2016-05-01T10:11:13.081Z,19.08
2016-05-01T10:12:13.084Z,19.16
2016-05-01T10:13:13.102Z,19.18
2016-05-01T10:14:13.088Z,19.22
2016-05-01T10:15:13.092Z,19.06
2016-05-01T10:16:12.798Z,19.06
2016-05-01T10:17:13.097Z,19.02
2016-05-01T10:18:13.116Z,18.98
2016-05-01T10:19:13.102Z,18.94
2016-05-01T10:20:13.011Z,18.81
2016-05-01T10:21:13.124Z,18.84
2016-05-01T10:22:13.111Z,18.85
2016-05-01T10:23:13.114Z,18.8
2016-05-01T10:24:13.132Z,18.75
2016-05-01T10:25:13.135Z,18.81
2016-05-01T10:26:13.121Z,18.72
2016-05-01T10:27:13.140Z,18.82
2016-05-01T10:28:13.142Z,18.76
2016-05-01T10:29:13.145Z,18.81
2016-05-01T10:30:13.148Z,18.72
2016-05-01T10:31:13.010Z,18.51
2016-05-01T10:32:13.154Z,18.39
2016-05-01T10:33:13.156Z,18.2
2016-05-01T10:34:13.159Z,18.23
2016-05-01T10:35:13.129Z,18.14
2016-05-01T10:36:13.007Z,17.96
2016-05-01T10:37:27.338Z,18
2016-05-01T10:38:13.904Z,18.11
2016-05-01T10:39:27.391Z,18.18
2016-05-01T10:40:13.175Z,18.26
2016-05-01T10:41:13.177Z,18.33
2016-05-01T10:42:13.383Z,18.41
2016-05-01T10:43:13.025Z,18.63
2016-05-01T10:44:13.029Z,18.78
2016-05-01T10:45:13.189Z,18.87
2016-05-01T10:46:14.331Z,18.87
2016-05-01T10:47:13.694Z,18.94
2016-05-01T10:48:41.946Z,18.78
2016-05-01T10:49:27.277Z,18.67
2016-05-01T10:50:13.451Z,18.54
2016-05-01T10:51:13.047Z,18.45
2016-05-01T10:52:13.208Z,18.48
2016-05-01T10:53:13.163Z,18.55
2016-05-01T10:54:13.213Z,18.6
2016-05-01T10:55:13.215Z,18.55
2016-05-01T10:56:13.061Z,18.69
2016-05-01T10:57:13.063Z,18.76
2016-05-01T10:58:13.223Z,18.76
2016-05-01T10:59:13.241Z,18.82
2016-05-01T11:00:13.228Z,18.75
2016-05-01T11:01:13.231Z,18.73
2016-05-01T11:02:13.234Z,18.73
2016-05-01T11:03:13.237Z,18.73
2016-05-01T11:04:13.239Z,18.58
2016-05-01T11:05:13.320Z,18.45
2016-05-01T11:06:13.245Z,18.42
2016-05-01T11:07:13.090Z,18.29
2016-05-01T11:08:13.265Z,18.26
2016-05-01T11:09:13.096Z,18.41
2016-05-01T11:10:15.552Z,18.42
2016-05-01T11:11:14.539Z,18.48
2016-05-01T11:12:13.261Z,18.54
2016-05-01T11:13:13.264Z,18.5
2016-05-01T11:14:14.266Z,18.44
2016-05-01T11:15:13.894Z,18.57
2016-05-01T11:16:13.350Z,18.55
2016-05-01T11:17:13.289Z,18.67
2016-05-01T11:18:13.277Z,18.76
2016-05-01T11:19:13.123Z,18.91
2016-05-01T11:20:14.908Z,18.92
2016-05-01T11:21:14.394Z,18.95
2016-05-01T11:22:13.131Z,18.98
2016-05-01T11:23:14.322Z,18.92
2016-05-01T11:24:13.668Z,18.95
2016-05-01T11:25:13.530Z,18.91
2016-05-01T11:26:13.142Z,18.91
2016-05-01T11:27:13.301Z,18.9
2016-05-01T11:28:13.304Z,18.82
2016-05-01T11:29:13.307Z,18.95
2016-05-01T11:30:13.325Z,19.06
2016-05-01T11:31:13.312Z,19.08
2016-05-01T11:32:13.330Z,19.26
2016-05-01T11:33:13.317Z,19.37
2016-05-01T11:34:13.320Z,19.47
2016-05-01T11:35:13.495Z,19.54
2016-05-01T11:36:13.341Z,19.55
2016-05-01T11:37:13.343Z,19.65
2016-05-01T11:38:13.174Z,19.54
2016-05-01T11:39:13.365Z,19.63
2016-05-01T11:40:13.195Z,19.63
2016-05-01T11:41:13.354Z,19.61
2016-05-01T11:42:13.357Z,19.48
2016-05-01T11:43:13.359Z,19.4
2016-05-01T11:44:13.362Z,19.54
2016-05-01T11:45:13.380Z,19.61
2016-05-01T11:46:13.367Z,19.61
2016-05-01T11:47:13.370Z,19.69
2016-05-01T11:48:13.217Z,19.73
2016-05-01T11:49:13.219Z,19.77
2016-05-01T11:50:13.223Z,19.8
2016-05-01T11:51:13.225Z,19.8
2016-05-01T11:52:13.383Z,19.92
2016-05-01T11:53:13.387Z,20.01
2016-05-01T11:54:13.405Z,20.05
2016-05-01T11:55:14.049Z,20.05
2016-05-01T11:56:14.457Z,20.16
2016-05-01T11:57:13.554Z,20.17
2016-05-01T11:58:14.260Z,20.17
2016-05-01T11:59:13.418Z,20.16
2016-05-01T12:00:13.421Z,19.94
2016-05-01T12:01:13.565Z,19.8
2016-05-01T12:02:13.426Z,19.71
2016-05-01T12:03:13.585Z,19.62
2016-05-01T12:04:13.448Z,19.73
2016-05-01T12:05:28.121Z,19.78
2016-05-01T12:06:13.437Z,19.81
2016-05-01T12:07:13.439Z,19.78
2016-05-01T12:08:13.287Z,19.78
2016-05-01T12:09:13.649Z,19.73
2016-05-01T12:10:13.760Z,19.65
2016-05-01T12:11:13.310Z,19.62
2016-05-01T12:12:13.312Z,19.56
2016-05-01T12:13:13.472Z,19.54
2016-05-01T12:14:13.475Z,19.56
2016-05-01T12:15:13.477Z,19.48
2016-05-01T12:16:13.480Z,19.58
2016-05-01T12:17:13.466Z,19.58
2016-05-01T12:18:13.485Z,19.48
2016-05-01T12:19:13.488Z,19.54
2016-05-01T12:20:13.491Z,19.58
2016-05-01T12:21:13.494Z,19.55
2016-05-01T12:22:13.497Z,19.5
2016-05-01T12:23:13.499Z,19.65
2016-05-01T12:24:13.344Z,19.68
2016-05-01T12:25:13.504Z,19.73
2016-05-01T12:26:13.507Z,19.77
2016-05-01T12:27:13.510Z,19.71
2016-05-01T12:28:13.355Z,19.78
2016-05-01T12:29:15.046Z,19.63
2016-05-01T12:30:13.532Z,19.68
2016-05-01T12:31:13.521Z,19.62
2016-05-01T12:32:13.523Z,19.54
2016-05-01T12:33:14.182Z,19.5
2016-05-01T12:34:14.107Z,19.48
2016-05-01T12:35:13.890Z,19.55
2016-05-01T12:36:13.737Z,19.39
2016-05-01T12:37:13.536Z,19.29
2016-05-01T12:38:14.398Z,19.07
2016-05-01T12:39:14.167Z,19.02
2016-05-01T12:40:13.560Z,18.98
2016-05-01T12:41:13.843Z,19.02
2016-05-01T12:42:13.768Z,19.13
2016-05-01T12:43:13.412Z,19.21
2016-05-01T12:44:13.570Z,19.28
2016-05-01T12:45:13.964Z,19.11
2016-05-01T12:46:13.606Z,19.06
2016-05-01T12:47:13.578Z,19.08
2016-05-01T12:48:13.582Z,19.18
2016-05-01T12:49:13.569Z,19.14
2016-05-01T12:50:13.431Z,19.26
2016-05-01T12:51:13.589Z,19.32
2016-05-01T12:52:13.592Z,19.4
2016-05-01T12:53:13.594Z,19.44
2016-05-01T12:54:13.441Z,19.47
2016-05-01T12:55:13.600Z,19.54
2016-05-01T12:56:13.603Z,19.47
2016-05-01T12:57:13.591Z,19.47
2016-05-01T12:58:13.608Z,19.28
2016-05-01T12:59:13.470Z,19.13
2016-05-01T13:00:13.613Z,19.02
2016-05-01T13:01:13.460Z,19.1
2016-05-01T13:02:13.463Z,19.04
2016-05-01T13:03:13.466Z,19.18
2016-05-01T13:04:13.624Z,19.37
2016-05-01T13:05:13.471Z,19.4
2016-05-01T13:06:13.630Z,19.44
2016-05-01T13:07:13.632Z,19.56
2016-05-01T13:08:13.479Z,19.48
2016-05-01T13:09:13.637Z,19.4
2016-05-01T13:10:13.640Z,19.43